Aérodrome :
LOGIN :

S'inscrire | Disclaimer

   EN    FR    IT 

 










Légende :    VFR   VFR Marginal   IFR   IFR Intensif   IFR Très Intensif
Visi : 
Plafond : 
>= 8 km
>= 3000ft
5 à 8 km
1000 à 3000 ft
1500m à 5 km
500 à 1000 ft
800 à 1500m
200 à 500 ft
< 800m
< 200 ft
Symboles :   Orages  Brouillard  Fortes neiges  Fortes précipitations  Vent > 20 kt
SIGMETs :   Divers  Orages  Givrage  Turbulence  Onde Orograph.  Cendres Volcan.






- Altitude de l'aérodrome : 348 ft
- Code IATA : LDV


LFRJ - Landivisiau

DERNIER METAR :
  • 110200Z AUTO 24008KT 9999 FEW033 05/03 Q1014 TEMPO 3000 SHRA BKN015TCU

METARs EXPIRÉS :
  • 110130Z AUTO 24008KT 9999 SCT032/// BKN041/// BKN052/// ///TCU 05/03 Q1014 TEMPO 3000 SHRA SCT025 BKN140
  • 110100Z AUTO 23007KT 9999 SCT039 06/03 Q1014 NOSIG
  • 110030Z AUTO 24006KT 9999 FEW033 07/03 Q1014 NOSIG
  • 110000Z AUTO 27008KT 9999 FEW035 SCT043 07/04 Q1014 NOSIG
  • 102330Z AUTO 27007KT 9999 FEW033 BKN045 BKN230 08/05 Q1014 NOSIG

TAF TAF LFRJ
Valide du 10 à 21h jusqu'au 11 à 06h UTC


102000Z 1021/1106 29009KT 9999 SCT025 BKN140
TEMPO 1103/1106 3000 SHRA BKN015TCU



MET'MAP, la Météo Aéronautique d'un coup d'oeil ! - Copyright ORBIFLY Décembre 2007 - Disclaimer

ORBIFLY MET'MAP TEAM :

Programmation & Développement : Alexandra Zaïnal
Sur une idée originale de : Baudouin d'Aumeries
Assistance à la programmation : Marc-Olivier Méhu
Soutien technique & logistique : Manuel Goepfert

Contact : metmap@orbifly.com




SOURCES & CREDITS :

   NOAA